sensor_id;sensor_type;location;lat;lon;timestamp;P1;durP1;ratioP1;P2;durP2;ratioP2
64197;SDS011;50512;53.666;9.700;2024-02-15T00:02:00;140.65;;;24.80;;
64197;SDS011;50512;53.666;9.700;2024-02-15T00:04:26;132.70;;;25.45;;
64197;SDS011;50512;53.666;9.700;2024-02-15T00:06:55;136.15;;;30.25;;
64197;SDS011;50512;53.666;9.700;2024-02-15T00:09:21;110.80;;;23.77;;
64197;SDS011;50512;53.666;9.700;2024-02-15T00:11:48;135.80;;;24.95;;
64197;SDS011;50512;53.666;9.700;2024-02-15T00:14:14;132.73;;;27.02;;
64197;SDS011;50512;53.666;9.700;2024-02-15T00:16:42;119.45;;;26.73;;
64197;SDS011;50512;53.666;9.700;2024-02-15T00:19:08;113.05;;;24.98;;
64197;SDS011;50512;53.666;9.700;2024-02-15T00:21:35;115.78;;;24.20;;
64197;SDS011;50512;53.666;9.700;2024-02-15T00:24:03;114.80;;;22.80;;
64197;SDS011;50512;53.666;9.700;2024-02-15T00:26:29;98.13;;;20.65;;
64197;SDS011;50512;53.666;9.700;2024-02-15T00:28:57;117.55;;;23.73;;
64197;SDS011;50512;53.666;9.700;2024-02-15T00:31:23;114.55;;;22.98;;
64197;SDS011;50512;53.666;9.700;2024-02-15T00:33:50;117.30;;;23.40;;
64197;SDS011;50512;53.666;9.700;2024-02-15T00:36:16;116.30;;;22.35;;
64197;SDS011;50512;53.666;9.700;2024-02-15T00:38:43;109.97;;;22.25;;
64197;SDS011;50512;53.666;9.700;2024-02-15T00:41:11;113.95;;;23.73;;
64197;SDS011;50512;53.666;9.700;2024-02-15T00:43:38;120.57;;;24.17;;
64197;SDS011;50512;53.666;9.700;2024-02-15T00:46:04;120.63;;;23.88;;
64197;SDS011;50512;53.666;9.700;2024-02-15T00:48:30;112.40;;;24.60;;
64197;SDS011;50512;53.666;9.700;2024-02-15T00:50:57;115.80;;;26.05;;
64197;SDS011;50512;53.666;9.700;2024-02-15T00:53:23;117.15;;;25.90;;
64197;SDS011;50512;53.666;9.700;2024-02-15T00:55:51;121.38;;;25.85;;
64197;SDS011;50512;53.666;9.700;2024-02-15T00:58:18;133.15;;;31.58;;
64197;SDS011;50512;53.666;9.700;2024-02-15T01:00:46;126.72;;;27.42;;
64197;SDS011;50512;53.666;9.700;2024-02-15T01:03:13;124.90;;;27.58;;
64197;SDS011;50512;53.666;9.700;2024-02-15T01:05:41;122.05;;;26.42;;
64197;SDS011;50512;53.666;9.700;2024-02-15T01:08:07;119.78;;;25.92;;
64197;SDS011;50512;53.666;9.700;2024-02-15T01:10:34;117.97;;;24.67;;
64197;SDS011;50512;53.666;9.700;2024-02-15T01:13:01;138.20;;;24.45;;
64197;SDS011;50512;53.666;9.700;2024-02-15T01:15:29;114.63;;;22.65;;
64197;SDS011;50512;53.666;9.700;2024-02-15T01:17:56;116.55;;;22.92;;
64197;SDS011;50512;53.666;9.700;2024-02-15T01:20:22;123.90;;;25.80;;
64197;SDS011;50512;53.666;9.700;2024-02-15T01:22:48;122.60;;;24.73;;
64197;SDS011;50512;53.666;9.700;2024-02-15T01:25:16;124.00;;;25.42;;
64197;SDS011;50512;53.666;9.700;2024-02-15T01:27:43;88.30;;;20.02;;
64197;SDS011;50512;53.666;9.700;2024-02-15T01:30:09;126.88;;;24.85;;
64197;SDS011;50512;53.666;9.700;2024-02-15T01:32:38;122.28;;;25.73;;
64197;SDS011;50512;53.666;9.700;2024-02-15T01:35:07;148.13;;;32.38;;
64197;SDS011;50512;53.666;9.700;2024-02-15T01:37:35;116.35;;;22.77;;
64197;SDS011;50512;53.666;9.700;2024-02-15T01:40:01;142.23;;;28.23;;
64197;SDS011;50512;53.666;9.700;2024-02-15T01:42:28;134.35;;;26.00;;
64197;SDS011;50512;53.666;9.700;2024-02-15T01:44:54;148.70;;;33.53;;
64197;SDS011;50512;53.666;9.700;2024-02-15T01:47:21;129.63;;;27.02;;
64197;SDS011;50512;53.666;9.700;2024-02-15T01:49:49;140.35;;;26.05;;
64197;SDS011;50512;53.666;9.700;2024-02-15T01:52:18;149.82;;;31.10;;
64197;SDS011;50512;53.666;9.700;2024-02-15T01:54:45;147.73;;;25.85;;
64197;SDS011;50512;53.666;9.700;2024-02-15T01:57:12;128.13;;;27.77;;
64197;SDS011;50512;53.666;9.700;2024-02-15T01:59:39;133.35;;;26.98;;
64197;SDS011;50512;53.666;9.700;2024-02-15T02:02:08;137.45;;;28.70;;
64197;SDS011;50512;53.666;9.700;2024-02-15T02:04:37;147.63;;;29.35;;
64197;SDS011;50512;53.666;9.700;2024-02-15T02:07:05;128.90;;;26.17;;
64197;SDS011;50512;53.666;9.700;2024-02-15T02:09:32;135.93;;;30.17;;
64197;SDS011;50512;53.666;9.700;2024-02-15T02:11:58;131.48;;;25.30;;
64197;SDS011;50512;53.666;9.700;2024-02-15T02:14:25;136.52;;;26.85;;
64197;SDS011;50512;53.666;9.700;2024-02-15T02:16:51;136.98;;;28.45;;
64197;SDS011;50512;53.666;9.700;2024-02-15T02:19:18;128.50;;;26.33;;
64197;SDS011;50512;53.666;9.700;2024-02-15T02:21:45;130.88;;;25.02;;
64197;SDS011;50512;53.666;9.700;2024-02-15T02:24:17;147.60;;;25.58;;
64197;SDS011;50512;53.666;9.700;2024-02-15T02:26:49;130.60;;;26.70;;
64197;SDS011;50512;53.666;9.700;2024-02-15T02:29:16;134.27;;;27.13;;
64197;SDS011;50512;53.666;9.700;2024-02-15T02:31:42;134.18;;;28.40;;
64197;SDS011;50512;53.666;9.700;2024-02-15T02:34:09;136.68;;;27.10;;
64197;SDS011;50512;53.666;9.700;2024-02-15T02:36:35;123.28;;;25.75;;
64197;SDS011;50512;53.666;9.700;2024-02-15T02:39:01;131.18;;;26.65;;
64197;SDS011;50512;53.666;9.700;2024-02-15T02:41:28;125.47;;;26.55;;
64197;SDS011;50512;53.666;9.700;2024-02-15T02:43:56;129.85;;;26.73;;
64197;SDS011;50512;53.666;9.700;2024-02-15T02:46:23;126.32;;;24.63;;
64197;SDS011;50512;53.666;9.700;2024-02-15T02:48:49;120.32;;;24.95;;
64197;SDS011;50512;53.666;9.700;2024-02-15T02:51:15;123.63;;;29.10;;
64197;SDS011;50512;53.666;9.700;2024-02-15T02:53:42;134.70;;;28.05;;
64197;SDS011;50512;53.666;9.700;2024-02-15T02:56:08;135.52;;;30.00;;
64197;SDS011;50512;53.666;9.700;2024-02-15T02:58:35;122.22;;;27.63;;
64197;SDS011;50512;53.666;9.700;2024-02-15T03:01:03;131.43;;;28.40;;
64197;SDS011;50512;53.666;9.700;2024-02-15T03:03:29;127.70;;;27.92;;
64197;SDS011;50512;53.666;9.700;2024-02-15T03:05:56;137.52;;;32.15;;
64197;SDS011;50512;53.666;9.700;2024-02-15T03:08:23;123.72;;;27.17;;
64197;SDS011;50512;53.666;9.700;2024-02-15T03:10:50;166.68;;;29.00;;
64197;SDS011;50512;53.666;9.700;2024-02-15T03:13:17;118.47;;;25.67;;
64197;SDS011;50512;53.666;9.700;2024-02-15T03:15:44;128.30;;;26.10;;
64197;SDS011;50512;53.666;9.700;2024-02-15T03:18:14;118.93;;;27.00;;
64197;SDS011;50512;53.666;9.700;2024-02-15T03:20:41;132.07;;;25.30;;
64197;SDS011;50512;53.666;9.700;2024-02-15T03:23:08;121.50;;;23.98;;
64197;SDS011;50512;53.666;9.700;2024-02-15T03:25:35;133.35;;;26.20;;
64197;SDS011;50512;53.666;9.700;2024-02-15T03:28:02;118.82;;;25.02;;
64197;SDS011;50512;53.666;9.700;2024-02-15T03:30:30;110.55;;;23.52;;
64197;SDS011;50512;53.666;9.700;2024-02-15T03:32:57;117.70;;;25.02;;
64197;SDS011;50512;53.666;9.700;2024-02-15T03:35:25;128.07;;;27.02;;
64197;SDS011;50512;53.666;9.700;2024-02-15T03:37:53;123.22;;;25.75;;
64197;SDS011;50512;53.666;9.700;2024-02-15T03:40:21;119.80;;;25.25;;
64197;SDS011;50512;53.666;9.700;2024-02-15T03:42:49;116.43;;;25.67;;
64197;SDS011;50512;53.666;9.700;2024-02-15T03:45:16;125.95;;;24.13;;
64197;SDS011;50512;53.666;9.700;2024-02-15T03:47:42;137.77;;;26.48;;
64197;SDS011;50512;53.666;9.700;2024-02-15T03:50:09;122.18;;;26.38;;
64197;SDS011;50512;53.666;9.700;2024-02-15T03:52:37;111.75;;;23.30;;
64197;SDS011;50512;53.666;9.700;2024-02-15T03:55:05;137.73;;;27.50;;
64197;SDS011;50512;53.666;9.700;2024-02-15T03:57:32;123.95;;;28.27;;
64197;SDS011;50512;53.666;9.700;2024-02-15T03:59:59;129.43;;;25.58;;
64197;SDS011;50512;53.666;9.700;2024-02-15T04:02:26;130.90;;;24.52;;
64197;SDS011;50512;53.666;9.700;2024-02-15T04:04:54;135.38;;;28.42;;
64197;SDS011;50512;53.666;9.700;2024-02-15T04:07:21;138.88;;;25.55;;
64197;SDS011;50512;53.666;9.700;2024-02-15T04:09:49;133.13;;;25.80;;
64197;SDS011;50512;53.666;9.700;2024-02-15T04:12:15;131.48;;;25.27;;
64197;SDS011;50512;53.666;9.700;2024-02-15T04:14:42;130.43;;;27.73;;
64197;SDS011;50512;53.666;9.700;2024-02-15T04:17:10;124.03;;;24.48;;
64197;SDS011;50512;53.666;9.700;2024-02-15T04:19:39;127.18;;;26.67;;
64197;SDS011;50512;53.666;9.700;2024-02-15T04:22:05;122.40;;;24.90;;
64197;SDS011;50512;53.666;9.700;2024-02-15T04:24:33;121.28;;;26.80;;
64197;SDS011;50512;53.666;9.700;2024-02-15T04:27:01;132.32;;;26.77;;
64197;SDS011;50512;53.666;9.700;2024-02-15T04:29:27;126.18;;;25.60;;
64197;SDS011;50512;53.666;9.700;2024-02-15T04:31:53;133.40;;;26.52;;
64197;SDS011;50512;53.666;9.700;2024-02-15T04:34:20;128.52;;;25.83;;
64197;SDS011;50512;53.666;9.700;2024-02-15T04:36:47;131.57;;;28.02;;
64197;SDS011;50512;53.666;9.700;2024-02-15T04:39:15;133.75;;;26.90;;
64197;SDS011;50512;53.666;9.700;2024-02-15T04:41:49;122.32;;;24.40;;
64197;SDS011;50512;53.666;9.700;2024-02-15T04:44:17;128.00;;;25.75;;
64197;SDS011;50512;53.666;9.700;2024-02-15T04:46:45;124.72;;;27.65;;
64197;SDS011;50512;53.666;9.700;2024-02-15T04:49:11;107.90;;;24.73;;
64197;SDS011;50512;53.666;9.700;2024-02-15T04:51:38;128.70;;;24.38;;
64197;SDS011;50512;53.666;9.700;2024-02-15T04:54:06;113.82;;;23.63;;
64197;SDS011;50512;53.666;9.700;2024-02-15T04:56:32;128.10;;;23.05;;
64197;SDS011;50512;53.666;9.700;2024-02-15T04:59:01;121.22;;;24.15;;
64197;SDS011;50512;53.666;9.700;2024-02-15T05:01:29;127.93;;;28.40;;
64197;SDS011;50512;53.666;9.700;2024-02-15T05:03:58;123.57;;;25.23;;
64197;SDS011;50512;53.666;9.700;2024-02-15T05:06:24;128.55;;;25.48;;
64197;SDS011;50512;53.666;9.700;2024-02-15T05:08:54;110.43;;;25.08;;
64197;SDS011;50512;53.666;9.700;2024-02-15T05:11:22;121.30;;;25.98;;
64197;SDS011;50512;53.666;9.700;2024-02-15T05:13:49;119.32;;;26.38;;
64197;SDS011;50512;53.666;9.700;2024-02-15T05:16:16;128.98;;;26.55;;
64197;SDS011;50512;53.666;9.700;2024-02-15T05:18:43;131.65;;;27.10;;
64197;SDS011;50512;53.666;9.700;2024-02-15T05:21:10;121.75;;;24.92;;
64197;SDS011;50512;53.666;9.700;2024-02-15T05:23:38;139.23;;;28.45;;
64197;SDS011;50512;53.666;9.700;2024-02-15T05:26:06;140.05;;;28.25;;
64197;SDS011;50512;53.666;9.700;2024-02-15T05:28:34;135.88;;;26.35;;
64197;SDS011;50512;53.666;9.700;2024-02-15T05:31:10;137.63;;;24.17;;
64197;SDS011;50512;53.666;9.700;2024-02-15T05:33:37;144.43;;;26.77;;
64197;SDS011;50512;53.666;9.700;2024-02-15T05:36:09;127.40;;;26.92;;
64197;SDS011;50512;53.666;9.700;2024-02-15T05:38:36;155.02;;;29.15;;
64197;SDS011;50512;53.666;9.700;2024-02-15T05:41:03;130.27;;;27.27;;
64197;SDS011;50512;53.666;9.700;2024-02-15T05:43:29;149.10;;;27.08;;
64197;SDS011;50512;53.666;9.700;2024-02-15T05:45:57;156.20;;;28.73;;
64197;SDS011;50512;53.666;9.700;2024-02-15T05:48:23;131.40;;;25.42;;
64197;SDS011;50512;53.666;9.700;2024-02-15T05:50:50;148.20;;;26.75;;
64197;SDS011;50512;53.666;9.700;2024-02-15T05:53:18;149.15;;;29.35;;
64197;SDS011;50512;53.666;9.700;2024-02-15T05:55:44;140.52;;;27.58;;
64197;SDS011;50512;53.666;9.700;2024-02-15T05:58:11;160.52;;;30.10;;
64197;SDS011;50512;53.666;9.700;2024-02-15T06:00:38;153.02;;;27.38;;
64197;SDS011;50512;53.666;9.700;2024-02-15T06:03:05;142.68;;;28.45;;
64197;SDS011;50512;53.666;9.700;2024-02-15T06:05:34;148.32;;;27.17;;
64197;SDS011;50512;53.666;9.700;2024-02-15T06:08:00;131.98;;;26.58;;
64197;SDS011;50512;53.666;9.700;2024-02-15T06:10:28;151.93;;;29.10;;
64197;SDS011;50512;53.666;9.700;2024-02-15T06:12:56;118.18;;;26.50;;
64197;SDS011;50512;53.666;9.700;2024-02-15T06:15:22;121.78;;;24.27;;
64197;SDS011;50512;53.666;9.700;2024-02-15T06:17:49;126.70;;;25.75;;
64197;SDS011;50512;53.666;9.700;2024-02-15T06:20:15;120.82;;;25.95;;
64197;SDS011;50512;53.666;9.700;2024-02-15T06:22:43;150.57;;;25.95;;
64197;SDS011;50512;53.666;9.700;2024-02-15T06:25:10;149.07;;;29.95;;
64197;SDS011;50512;53.666;9.700;2024-02-15T06:27:38;152.82;;;26.55;;
64197;SDS011;50512;53.666;9.700;2024-02-15T06:30:07;139.77;;;25.88;;
64197;SDS011;50512;53.666;9.700;2024-02-15T06:32:52;140.15;;;28.08;;
64197;SDS011;50512;53.666;9.700;2024-02-15T06:35:36;127.65;;;25.30;;
64197;SDS011;50512;53.666;9.700;2024-02-15T06:38:21;115.63;;;23.52;;
64197;SDS011;50512;53.666;9.700;2024-02-15T06:41:05;114.60;;;22.20;;
64197;SDS011;50512;53.666;9.700;2024-02-15T06:43:32;114.88;;;24.38;;
64197;SDS011;50512;53.666;9.700;2024-02-15T06:45:59;111.95;;;24.40;;
64197;SDS011;50512;53.666;9.700;2024-02-15T06:48:26;116.25;;;24.52;;
64197;SDS011;50512;53.666;9.700;2024-02-15T06:50:53;103.07;;;23.48;;
64197;SDS011;50512;53.666;9.700;2024-02-15T06:53:19;112.25;;;23.35;;
64197;SDS011;50512;53.666;9.700;2024-02-15T06:55:46;121.07;;;24.67;;
64197;SDS011;50512;53.666;9.700;2024-02-15T06:58:14;114.25;;;23.42;;
64197;SDS011;50512;53.666;9.700;2024-02-15T07:00:42;112.45;;;23.55;;
64197;SDS011;50512;53.666;9.700;2024-02-15T07:03:08;110.03;;;24.38;;
64197;SDS011;50512;53.666;9.700;2024-02-15T07:05:35;109.68;;;22.95;;
64197;SDS011;50512;53.666;9.700;2024-02-15T07:08:03;116.43;;;24.33;;
64197;SDS011;50512;53.666;9.700;2024-02-15T07:10:30;111.25;;;23.13;;
64197;SDS011;50512;53.666;9.700;2024-02-15T07:12:57;110.88;;;23.08;;
64197;SDS011;50512;53.666;9.700;2024-02-15T07:15:24;110.80;;;23.17;;
64197;SDS011;50512;53.666;9.700;2024-02-15T07:17:51;115.35;;;24.40;;
64197;SDS011;50512;53.666;9.700;2024-02-15T07:20:19;122.80;;;24.98;;
64197;SDS011;50512;53.666;9.700;2024-02-15T07:22:48;103.57;;;23.67;;
64197;SDS011;50512;53.666;9.700;2024-02-15T07:25:14;96.15;;;23.90;;
64197;SDS011;50512;53.666;9.700;2024-02-15T07:27:40;94.70;;;22.83;;
64197;SDS011;50512;53.666;9.700;2024-02-15T07:30:07;80.10;;;20.65;;
64197;SDS011;50512;53.666;9.700;2024-02-15T07:32:34;92.78;;;21.27;;
64197;SDS011;50512;53.666;9.700;2024-02-15T07:35:03;86.03;;;19.92;;
64197;SDS011;50512;53.666;9.700;2024-02-15T07:37:32;83.55;;;19.98;;
64197;SDS011;50512;53.666;9.700;2024-02-15T07:39:59;101.75;;;22.40;;
64197;SDS011;50512;53.666;9.700;2024-02-15T07:42:25;93.65;;;21.67;;
64197;SDS011;50512;53.666;9.700;2024-02-15T07:44:52;100.40;;;22.98;;
64197;SDS011;50512;53.666;9.700;2024-02-15T07:47:18;103.65;;;21.63;;
64197;SDS011;50512;53.666;9.700;2024-02-15T07:49:49;93.57;;;21.80;;
64197;SDS011;50512;53.666;9.700;2024-02-15T07:52:17;84.63;;;19.77;;
64197;SDS011;50512;53.666;9.700;2024-02-15T07:54:44;84.90;;;20.73;;
64197;SDS011;50512;53.666;9.700;2024-02-15T07:57:11;88.13;;;21.23;;
64197;SDS011;50512;53.666;9.700;2024-02-15T07:59:39;85.45;;;18.45;;
64197;SDS011;50512;53.666;9.700;2024-02-15T08:02:05;81.90;;;18.33;;
64197;SDS011;50512;53.666;9.700;2024-02-15T08:04:32;76.28;;;17.35;;
64197;SDS011;50512;53.666;9.700;2024-02-15T08:07:05;75.15;;;18.25;;
64197;SDS011;50512;53.666;9.700;2024-02-15T08:09:36;72.45;;;17.17;;
64197;SDS011;50512;53.666;9.700;2024-02-15T08:12:03;69.68;;;17.23;;
64197;SDS011;50512;53.666;9.700;2024-02-15T08:14:30;73.88;;;16.80;;
64197;SDS011;50512;53.666;9.700;2024-02-15T08:16:57;76.68;;;14.85;;
64197;SDS011;50512;53.666;9.700;2024-02-15T08:19:23;73.88;;;14.93;;
64197;SDS011;50512;53.666;9.700;2024-02-15T08:21:50;74.40;;;17.65;;
64197;SDS011;50512;53.666;9.700;2024-02-15T08:24:17;76.85;;;16.80;;
64197;SDS011;50512;53.666;9.700;2024-02-15T08:26:44;71.35;;;16.20;;
64197;SDS011;50512;53.666;9.700;2024-02-15T08:29:12;72.63;;;16.33;;
64197;SDS011;50512;53.666;9.700;2024-02-15T08:31:40;75.78;;;16.42;;
64197;SDS011;50512;53.666;9.700;2024-02-15T08:34:07;75.20;;;17.05;;
64197;SDS011;50512;53.666;9.700;2024-02-15T08:36:36;88.40;;;18.50;;
64197;SDS011;50512;53.666;9.700;2024-02-15T08:39:04;73.70;;;18.58;;
64197;SDS011;50512;53.666;9.700;2024-02-15T08:41:33;86.10;;;19.08;;
64197;SDS011;50512;53.666;9.700;2024-02-15T08:44:01;90.18;;;18.63;;
64197;SDS011;50512;53.666;9.700;2024-02-15T08:46:31;95.30;;;21.70;;
64197;SDS011;50512;53.666;9.700;2024-02-15T08:48:57;86.70;;;19.83;;
64197;SDS011;50512;53.666;9.700;2024-02-15T08:51:25;94.72;;;20.15;;
64197;SDS011;50512;53.666;9.700;2024-02-15T08:53:52;93.47;;;23.10;;
64197;SDS011;50512;53.666;9.700;2024-02-15T08:56:18;95.97;;;20.63;;
64197;SDS011;50512;53.666;9.700;2024-02-15T08:58:45;108.70;;;22.23;;
64197;SDS011;50512;53.666;9.700;2024-02-15T09:01:13;110.03;;;25.50;;
64197;SDS011;50512;53.666;9.700;2024-02-15T09:03:40;112.70;;;23.02;;
64197;SDS011;50512;53.666;9.700;2024-02-15T09:06:06;108.05;;;22.33;;
64197;SDS011;50512;53.666;9.700;2024-02-15T09:08:33;99.93;;;20.95;;
64197;SDS011;50512;53.666;9.700;2024-02-15T09:10:59;83.45;;;18.88;;
64197;SDS011;50512;53.666;9.700;2024-02-15T09:13:26;94.43;;;20.95;;
64197;SDS011;50512;53.666;9.700;2024-02-15T09:15:52;96.30;;;20.73;;
64197;SDS011;50512;53.666;9.700;2024-02-15T09:18:21;98.28;;;21.23;;
64197;SDS011;50512;53.666;9.700;2024-02-15T09:20:48;98.10;;;21.25;;
64197;SDS011;50512;53.666;9.700;2024-02-15T09:23:20;90.57;;;20.23;;
64197;SDS011;50512;53.666;9.700;2024-02-15T09:25:48;95.50;;;21.85;;
64197;SDS011;50512;53.666;9.700;2024-02-15T09:28:16;89.13;;;19.58;;
64197;SDS011;50512;53.666;9.700;2024-02-15T09:30:46;83.72;;;17.92;;
64197;SDS011;50512;53.666;9.700;2024-02-15T09:33:13;88.90;;;21.05;;
64197;SDS011;50512;53.666;9.700;2024-02-15T09:35:41;86.78;;;20.40;;
64197;SDS011;50512;53.666;9.700;2024-02-15T09:38:07;103.20;;;20.90;;
64197;SDS011;50512;53.666;9.700;2024-02-15T09:40:34;81.97;;;19.35;;
64197;SDS011;50512;53.666;9.700;2024-02-15T09:43:01;77.15;;;17.83;;
64197;SDS011;50512;53.666;9.700;2024-02-15T09:45:27;78.13;;;19.50;;
64197;SDS011;50512;53.666;9.700;2024-02-15T09:47:54;79.00;;;19.63;;
64197;SDS011;50512;53.666;9.700;2024-02-15T09:50:24;77.90;;;18.73;;
64197;SDS011;50512;53.666;9.700;2024-02-15T09:52:55;80.28;;;19.40;;
64197;SDS011;50512;53.666;9.700;2024-02-15T09:55:22;80.05;;;18.35;;
64197;SDS011;50512;53.666;9.700;2024-02-15T09:57:50;72.15;;;17.85;;
64197;SDS011;50512;53.666;9.700;2024-02-15T10:00:17;71.30;;;18.17;;
64197;SDS011;50512;53.666;9.700;2024-02-15T10:02:44;75.05;;;18.10;;
64197;SDS011;50512;53.666;9.700;2024-02-15T10:05:12;76.30;;;20.67;;
64197;SDS011;50512;53.666;9.700;2024-02-15T10:07:39;60.22;;;17.38;;
64197;SDS011;50512;53.666;9.700;2024-02-15T10:10:15;72.57;;;19.55;;
64197;SDS011;50512;53.666;9.700;2024-02-15T10:12:44;73.93;;;19.23;;
64197;SDS011;50512;53.666;9.700;2024-02-15T10:15:14;70.57;;;18.55;;
64197;SDS011;50512;53.666;9.700;2024-02-15T10:17:53;68.93;;;18.67;;
64197;SDS011;50512;53.666;9.700;2024-02-15T10:20:20;72.13;;;20.00;;
64197;SDS011;50512;53.666;9.700;2024-02-15T10:22:50;69.38;;;19.98;;
64197;SDS011;50512;53.666;9.700;2024-02-15T10:25:19;72.10;;;21.25;;
64197;SDS011;50512;53.666;9.700;2024-02-15T10:27:47;68.05;;;20.60;;
64197;SDS011;50512;53.666;9.700;2024-02-15T10:30:14;75.93;;;23.10;;
64197;SDS011;50512;53.666;9.700;2024-02-15T10:32:42;70.13;;;20.15;;
64197;SDS011;50512;53.666;9.700;2024-02-15T10:35:09;70.80;;;19.08;;
64197;SDS011;50512;53.666;9.700;2024-02-15T10:37:40;70.10;;;19.88;;
64197;SDS011;50512;53.666;9.700;2024-02-15T10:40:07;76.15;;;22.10;;
64197;SDS011;50512;53.666;9.700;2024-02-15T10:42:36;78.53;;;21.10;;
64197;SDS011;50512;53.666;9.700;2024-02-15T10:45:02;84.65;;;23.02;;
64197;SDS011;50512;53.666;9.700;2024-02-15T10:47:30;83.10;;;24.55;;
64197;SDS011;50512;53.666;9.700;2024-02-15T10:49:57;69.85;;;21.52;;
64197;SDS011;50512;53.666;9.700;2024-02-15T10:52:24;60.97;;;19.65;;
64197;SDS011;50512;53.666;9.700;2024-02-15T10:54:56;67.60;;;23.27;;
64197;SDS011;50512;53.666;9.700;2024-02-15T10:57:30;70.13;;;22.92;;
64197;SDS011;50512;53.666;9.700;2024-02-15T10:59:59;71.00;;;21.73;;
64197;SDS011;50512;53.666;9.700;2024-02-15T11:02:36;70.57;;;21.77;;
64197;SDS011;50512;53.666;9.700;2024-02-15T11:05:06;69.00;;;22.98;;
64197;SDS011;50512;53.666;9.700;2024-02-15T11:07:35;64.55;;;19.98;;
64197;SDS011;50512;53.666;9.700;2024-02-15T11:10:02;64.15;;;21.75;;
64197;SDS011;50512;53.666;9.700;2024-02-15T11:12:33;72.55;;;23.38;;
64197;SDS011;50512;53.666;9.700;2024-02-15T11:15:01;75.97;;;22.67;;
64197;SDS011;50512;53.666;9.700;2024-02-15T11:17:45;69.57;;;22.83;;
64197;SDS011;50512;53.666;9.700;2024-02-15T11:23:23;77.32;;;23.95;;
64197;SDS011;50512;53.666;9.700;2024-02-15T11:25:51;71.90;;;23.13;;
64197;SDS011;50512;53.666;9.700;2024-02-15T11:28:37;75.22;;;24.65;;
64197;SDS011;50512;53.666;9.700;2024-02-15T11:40:18;71.75;;;23.52;;
64197;SDS011;50512;53.666;9.700;2024-02-15T11:42:48;84.40;;;26.80;;
64197;SDS011;50512;53.666;9.700;2024-02-15T11:45:15;84.82;;;27.27;;
64197;SDS011;50512;53.666;9.700;2024-02-15T11:47:46;96.32;;;28.40;;
64197;SDS011;50512;53.666;9.700;2024-02-15T11:50:15;91.05;;;26.27;;
64197;SDS011;50512;53.666;9.700;2024-02-15T11:52:42;93.63;;;29.65;;
64197;SDS011;50512;53.666;9.700;2024-02-15T11:55:11;94.70;;;28.08;;
64197;SDS011;50512;53.666;9.700;2024-02-15T11:57:38;92.60;;;28.35;;
64197;SDS011;50512;53.666;9.700;2024-02-15T12:00:22;104.17;;;32.10;;
64197;SDS011;50512;53.666;9.700;2024-02-15T12:03:08;102.18;;;32.40;;
64197;SDS011;50512;53.666;9.700;2024-02-15T12:05:52;104.40;;;30.92;;
64197;SDS011;50512;53.666;9.700;2024-02-15T12:08:37;99.20;;;29.10;;
64197;SDS011;50512;53.666;9.700;2024-02-15T12:11:21;93.47;;;28.02;;
64197;SDS011;50512;53.666;9.700;2024-02-15T12:14:05;114.00;;;33.58;;
64197;SDS011;50512;53.666;9.700;2024-02-15T12:16:59;100.25;;;29.60;;
64197;SDS011;50512;53.666;9.700;2024-02-15T12:19:48;91.03;;;27.48;;
64197;SDS011;50512;53.666;9.700;2024-02-15T12:22:16;99.32;;;29.42;;
64197;SDS011;50512;53.666;9.700;2024-02-15T12:24:45;91.55;;;27.40;;
64197;SDS011;50512;53.666;9.700;2024-02-15T12:27:19;92.75;;;26.02;;
64197;SDS011;50512;53.666;9.700;2024-02-15T12:29:51;83.55;;;24.27;;
64197;SDS011;50512;53.666;9.700;2024-02-15T12:32:22;93.40;;;28.00;;
64197;SDS011;50512;53.666;9.700;2024-02-15T12:34:50;91.53;;;28.40;;
64197;SDS011;50512;53.666;9.700;2024-02-15T12:37:17;102.22;;;28.63;;
64197;SDS011;50512;53.666;9.700;2024-02-15T12:39:45;94.15;;;27.95;;
64197;SDS011;50512;53.666;9.700;2024-02-15T12:42:12;88.80;;;27.60;;
64197;SDS011;50512;53.666;9.700;2024-02-15T12:44:41;95.10;;;28.38;;
64197;SDS011;50512;53.666;9.700;2024-02-15T12:47:16;92.28;;;26.95;;
64197;SDS011;50512;53.666;9.700;2024-02-15T12:49:44;81.70;;;26.85;;
64197;SDS011;50512;53.666;9.700;2024-02-15T12:55:07;78.10;;;24.88;;
64197;SDS011;50512;53.666;9.700;2024-02-15T12:57:38;81.30;;;25.58;;
64197;SDS011;50512;53.666;9.700;2024-02-15T13:00:10;76.47;;;24.67;;
64197;SDS011;50512;53.666;9.700;2024-02-15T13:02:42;72.32;;;22.48;;
64197;SDS011;50512;53.666;9.700;2024-02-15T13:05:09;80.00;;;24.73;;
64197;SDS011;50512;53.666;9.700;2024-02-15T13:07:38;58.42;;;23.50;;
64197;SDS011;50512;53.666;9.700;2024-02-15T13:10:05;43.63;;;19.65;;
64197;SDS011;50512;53.666;9.700;2024-02-15T13:12:33;60.50;;;22.08;;
64197;SDS011;50512;53.666;9.700;2024-02-15T13:15:01;58.85;;;22.67;;
64197;SDS011;50512;53.666;9.700;2024-02-15T13:17:28;56.47;;;20.55;;
64197;SDS011;50512;53.666;9.700;2024-02-15T13:19:55;56.35;;;19.20;;
64197;SDS011;50512;53.666;9.700;2024-02-15T13:22:28;55.13;;;21.48;;
64197;SDS011;50512;53.666;9.700;2024-02-15T13:24:56;59.28;;;21.13;;
64197;SDS011;50512;53.666;9.700;2024-02-15T13:27:22;59.40;;;19.77;;
64197;SDS011;50512;53.666;9.700;2024-02-15T13:29:49;58.58;;;21.98;;
64197;SDS011;50512;53.666;9.700;2024-02-15T13:32:15;56.10;;;21.77;;
64197;SDS011;50512;53.666;9.700;2024-02-15T13:34:45;51.50;;;19.33;;
64197;SDS011;50512;53.666;9.700;2024-02-15T13:37:16;57.92;;;22.38;;
64197;SDS011;50512;53.666;9.700;2024-02-15T13:39:43;63.10;;;22.50;;
64197;SDS011;50512;53.666;9.700;2024-02-15T13:42:12;49.17;;;20.42;;
64197;SDS011;50512;53.666;9.700;2024-02-15T13:44:38;59.35;;;21.50;;
64197;SDS011;50512;53.666;9.700;2024-02-15T13:47:05;62.85;;;22.48;;
64197;SDS011;50512;53.666;9.700;2024-02-15T13:49:32;57.65;;;22.50;;
64197;SDS011;50512;53.666;9.700;2024-02-15T13:51:59;62.60;;;24.95;;
64197;SDS011;50512;53.666;9.700;2024-02-15T13:54:28;58.75;;;24.10;;
64197;SDS011;50512;53.666;9.700;2024-02-15T13:56:54;60.75;;;21.92;;
64197;SDS011;50512;53.666;9.700;2024-02-15T13:59:22;58.80;;;21.27;;
64197;SDS011;50512;53.666;9.700;2024-02-15T14:01:49;57.25;;;20.90;;
64197;SDS011;50512;53.666;9.700;2024-02-15T14:04:15;57.90;;;22.35;;
64197;SDS011;50512;53.666;9.700;2024-02-15T14:06:42;62.33;;;23.73;;
64197;SDS011;50512;53.666;9.700;2024-02-15T14:09:09;56.10;;;21.80;;
64197;SDS011;50512;53.666;9.700;2024-02-15T14:11:36;52.05;;;18.08;;
64197;SDS011;50512;53.666;9.700;2024-02-15T14:14:03;64.13;;;24.33;;
64197;SDS011;50512;53.666;9.700;2024-02-15T14:16:31;60.45;;;22.45;;
64197;SDS011;50512;53.666;9.700;2024-02-15T14:18:59;65.80;;;23.92;;
64197;SDS011;50512;53.666;9.700;2024-02-15T14:21:28;63.05;;;22.85;;
64197;SDS011;50512;53.666;9.700;2024-02-15T14:23:57;61.25;;;21.77;;
64197;SDS011;50512;53.666;9.700;2024-02-15T14:26:23;63.38;;;24.33;;
64197;SDS011;50512;53.666;9.700;2024-02-15T14:28:52;59.53;;;21.52;;
64197;SDS011;50512;53.666;9.700;2024-02-15T14:31:18;65.50;;;23.55;;
64197;SDS011;50512;53.666;9.700;2024-02-15T14:34:00;58.58;;;22.30;;
64197;SDS011;50512;53.666;9.700;2024-02-15T14:36:26;57.30;;;21.10;;